DENVER INTL

KDEN (DEN)
Denver, Colorado
Towered

Vatsim Metar:
KDEN 280453Z VRB03KT 7SM CLR M07/M11 A3007 RMK AO2 SLP223 T10721106

SIDs

STARS

Alternate Minimums

Hot Spots